createdAt,value
2023-02-04T00:00:35.102Z,24.10
2023-02-04T00:05:26.099Z,17.38
2023-02-04T00:10:20.367Z,21.33
2023-02-04T00:15:13.889Z,25.00
2023-02-04T00:20:11.644Z,22.73
2023-02-04T00:25:02.526Z,16.63
2023-02-04T00:29:55.844Z,20.00
2023-02-04T00:34:50.562Z,22.50
2023-02-04T00:39:44.856Z,26.40
2023-02-04T00:44:37.519Z,20.43
2023-02-04T00:49:29.999Z,28.90
2023-02-04T00:54:20.084Z,29.67
2023-02-04T00:59:13.102Z,23.00
2023-02-04T01:04:07.748Z,27.35
2023-02-04T01:08:58.512Z,26.80
2023-02-04T01:13:53.456Z,28.05
2023-02-04T01:18:50.148Z,29.23
2023-02-04T01:23:42.508Z,21.25
2023-02-04T01:28:34.506Z,23.45
2023-02-04T01:33:26.428Z,25.50
2023-02-04T01:38:22.316Z,22.70
2023-02-04T01:43:13.974Z,25.17
2023-02-04T01:48:06.199Z,27.23
2023-02-04T01:53:02.945Z,24.30
2023-02-04T01:57:59.193Z,29.97
2023-02-04T02:02:53.817Z,29.20
2023-02-04T02:07:49.027Z,24.60
2023-02-04T02:12:42.201Z,25.50
2023-02-04T02:17:36.770Z,25.63
2023-02-04T02:22:32.790Z,27.98
2023-02-04T02:27:27.329Z,27.50
2023-02-04T02:32:22.882Z,29.25
2023-02-04T02:37:18.333Z,25.90
2023-02-04T02:42:08.276Z,27.30
2023-02-04T02:47:03.018Z,27.38
2023-02-04T02:51:56.128Z,29.80
2023-02-04T02:56:48.354Z,27.08
2023-02-04T03:01:40.021Z,26.90
2023-02-04T03:06:34.980Z,23.75
2023-02-04T03:11:28.253Z,24.25
2023-02-04T03:16:20.025Z,26.52
2023-02-04T03:21:14.864Z,27.70
2023-02-04T03:26:11.278Z,26.80
2023-02-04T03:31:03.635Z,28.40
2023-02-04T03:35:54.312Z,31.98
2023-02-04T03:40:44.333Z,24.40
2023-02-04T03:45:45.005Z,21.47
2023-02-04T03:50:37.264Z,23.53
2023-02-04T03:55:30.368Z,24.42
2023-02-04T04:00:21.997Z,20.42
2023-02-04T04:05:15.815Z,26.75
2023-02-04T04:10:07.700Z,21.63
2023-02-04T04:15:00.340Z,25.63
2023-02-04T04:19:51.563Z,24.67
2023-02-04T04:24:45.915Z,20.65
2023-02-04T04:29:39.102Z,21.80
2023-02-04T04:34:29.818Z,27.02
2023-02-04T04:39:20.181Z,20.98
2023-02-04T04:44:12.688Z,22.80
2023-02-04T04:49:02.973Z,23.43
2023-02-04T04:53:54.563Z,18.50
2023-02-04T04:58:45.423Z,18.17
2023-02-04T05:03:41.241Z,20.20
2023-02-04T05:08:34.461Z,21.70
2023-02-04T05:13:26.325Z,17.58
2023-02-04T05:18:18.477Z,24.05
2023-02-04T05:23:14.837Z,23.73
2023-02-04T05:28:05.833Z,26.43
2023-02-04T05:33:00.534Z,26.45
2023-02-04T05:37:52.035Z,34.63
2023-02-04T05:42:46.854Z,38.35
2023-02-04T05:47:36.820Z,35.15
2023-02-04T05:52:29.597Z,36.05
2023-02-04T05:57:19.383Z,33.22
2023-02-04T06:02:12.720Z,35.92
2023-02-04T06:07:04.074Z,40.50
2023-02-04T06:11:58.039Z,42.05
2023-02-04T06:16:50.036Z,39.43
2023-02-04T06:21:43.099Z,36.65
2023-02-04T06:26:38.941Z,37.03
2023-02-04T06:31:33.283Z,39.43
2023-02-04T06:36:25.227Z,36.65
2023-02-04T06:41:20.405Z,33.53
2023-02-04T06:46:11.368Z,39.28
2023-02-04T06:51:01.880Z,37.40
2023-02-04T06:55:52.858Z,36.60
2023-02-04T07:00:45.748Z,41.83
2023-02-04T07:05:37.802Z,43.28
2023-02-04T07:10:33.730Z,42.57
2023-02-04T07:15:31.454Z,45.60
2023-02-04T07:20:27.551Z,45.90
2023-02-04T07:25:22.520Z,44.57
2023-02-04T07:30:15.601Z,46.85
2023-02-04T07:35:09.542Z,51.20
2023-02-04T07:40:03.057Z,50.83
2023-02-04T07:44:53.480Z,52.17
2023-02-04T07:49:43.565Z,55.17
2023-02-04T07:54:35.013Z,55.27
2023-02-04T07:59:31.565Z,54.03
2023-02-04T08:04:23.634Z,52.95
2023-02-04T08:09:15.531Z,48.05
2023-02-04T08:14:12.074Z,54.15
2023-02-04T08:19:07.420Z,45.78
2023-02-04T08:24:01.111Z,47.70
2023-02-04T08:28:53.341Z,49.87
2023-02-04T08:33:47.940Z,44.42
2023-02-04T08:38:41.697Z,46.75
2023-02-04T08:43:31.842Z,45.60
2023-02-04T08:48:22.603Z,39.97
2023-02-04T08:53:13.199Z,43.57
2023-02-04T08:58:06.433Z,41.57
2023-02-04T09:02:57.544Z,44.40
2023-02-04T09:07:53.000Z,43.63
2023-02-04T09:12:44.354Z,38.05
2023-02-04T09:17:39.928Z,38.50
2023-02-04T09:22:31.914Z,47.00
2023-02-04T09:27:23.253Z,47.08
2023-02-04T09:32:14.290Z,39.85
2023-02-04T09:37:09.240Z,37.30
2023-02-04T09:42:02.999Z,34.45
2023-02-04T09:46:55.670Z,28.23
2023-02-04T09:51:49.507Z,30.33
2023-02-04T09:56:43.137Z,24.58
2023-02-04T10:01:40.085Z,24.80
2023-02-04T10:06:33.108Z,23.97
2023-02-04T10:11:28.068Z,27.70
2023-02-04T10:16:30.346Z,22.55
2023-02-04T10:21:25.115Z,25.08
2023-02-04T10:26:18.020Z,21.23
2023-02-04T10:31:11.224Z,19.70
2023-02-04T10:36:07.818Z,17.80
2023-02-04T10:41:06.179Z,16.10
2023-02-04T10:46:05.095Z,17.05
2023-02-04T10:51:00.549Z,21.80
2023-02-04T10:55:54.301Z,19.20
2023-02-04T11:00:48.593Z,19.83
2023-02-04T11:05:42.734Z,22.05
2023-02-04T11:10:36.068Z,18.40
2023-02-04T11:16:14.131Z,20.40
2023-02-04T11:21:06.350Z,19.23
2023-02-04T11:26:08.284Z,16.60
2023-02-04T11:31:17.840Z,17.35
2023-02-04T11:36:17.933Z,14.75
2023-02-04T11:41:19.391Z,14.68
2023-02-04T11:46:18.943Z,16.55
2023-02-04T11:51:19.411Z,18.93
2023-02-04T11:56:09.505Z,21.37
2023-02-04T12:00:59.640Z,18.67
2023-02-04T12:05:56.382Z,24.93
2023-02-04T12:10:57.627Z,19.00
2023-02-04T12:16:07.739Z,22.23
2023-02-04T12:21:05.182Z,20.92
2023-02-04T12:25:57.747Z,22.90
2023-02-04T12:30:48.249Z,20.58
2023-02-04T12:35:39.054Z,17.67
2023-02-04T12:40:31.696Z,19.88
2023-02-04T12:45:22.981Z,20.23
2023-02-04T12:50:15.509Z,18.27
2023-02-04T12:55:11.480Z,20.98
2023-02-04T13:00:11.564Z,17.33
2023-02-04T13:05:10.234Z,13.18
2023-02-04T13:10:03.031Z,11.00
2023-02-04T13:14:54.424Z,12.90
2023-02-04T13:19:47.830Z,15.10
2023-02-04T13:24:38.088Z,19.38
2023-02-04T13:29:28.640Z,19.73
2023-02-04T13:34:20.007Z,18.77
2023-02-04T13:39:15.256Z,17.20
2023-02-04T13:44:07.510Z,12.13
2023-02-04T13:48:59.046Z,10.63
2023-02-04T13:53:53.914Z,9.88
2023-02-04T13:58:48.272Z,9.00
2023-02-04T14:03:43.811Z,7.32
2023-02-04T14:08:39.413Z,6.25
2023-02-04T14:13:38.934Z,9.30
2023-02-04T14:18:31.907Z,6.47
2023-02-04T14:23:25.132Z,8.47
2023-02-04T14:28:21.431Z,7.88
2023-02-04T14:33:14.106Z,8.45
2023-02-04T14:38:12.884Z,4.13
2023-02-04T14:43:07.494Z,7.78
2023-02-04T14:48:03.033Z,6.25
2023-02-04T14:52:55.793Z,6.88
2023-02-04T14:57:50.505Z,5.95
2023-02-04T15:02:45.049Z,6.80
2023-02-04T15:07:35.805Z,7.60
2023-02-04T15:12:29.297Z,9.25
2023-02-04T15:17:30.321Z,8.82
2023-02-04T15:22:24.451Z,8.60
2023-02-04T15:27:15.652Z,9.13
2023-02-04T15:32:16.273Z,7.18
2023-02-04T15:37:11.559Z,19.48
2023-02-04T15:42:06.198Z,9.90
2023-02-04T15:46:59.417Z,11.93
2023-02-04T15:51:52.420Z,12.48
2023-02-04T15:56:45.136Z,11.98
2023-02-04T16:01:42.974Z,11.18
2023-02-04T16:06:37.167Z,11.60
2023-02-04T16:11:29.206Z,12.90
2023-02-04T16:16:24.261Z,10.37
2023-02-04T16:21:16.296Z,10.93
2023-02-04T16:26:09.591Z,14.10
2023-02-04T16:31:00.911Z,16.88
2023-02-04T16:36:05.305Z,14.98
2023-02-04T16:40:55.603Z,17.13
2023-02-04T16:45:49.516Z,21.23
2023-02-04T16:50:41.590Z,22.05
2023-02-04T16:55:36.063Z,25.40
2023-02-04T17:00:28.242Z,35.40
2023-02-04T17:05:20.057Z,28.75
2023-02-04T17:10:15.722Z,31.73
2023-02-04T17:15:14.800Z,33.95
2023-02-04T17:20:06.080Z,34.00
2023-02-04T17:24:56.663Z,37.83
2023-02-04T17:29:46.787Z,38.10
2023-02-04T17:34:39.680Z,38.20
2023-02-04T17:39:30.671Z,37.20
2023-02-04T17:44:25.299Z,37.93
2023-02-04T17:49:17.840Z,43.45
2023-02-04T17:54:13.955Z,38.58
2023-02-04T17:59:05.426Z,41.75
2023-02-04T18:03:59.503Z,40.05
2023-02-04T18:08:53.119Z,44.60
2023-02-04T18:13:47.490Z,42.85
2023-02-04T18:18:40.566Z,38.50
2023-02-04T18:23:33.724Z,38.90
2023-02-04T18:28:24.883Z,40.75
2023-02-04T18:33:23.920Z,36.90
2023-02-04T18:38:39.899Z,34.45
2023-02-04T18:43:32.205Z,35.70
2023-02-04T18:48:59.398Z,40.40
2023-02-04T18:53:53.465Z,39.97
2023-02-04T18:58:50.933Z,38.45
2023-02-04T19:03:50.397Z,38.00
2023-02-04T19:08:48.273Z,39.55
2023-02-04T19:14:31.733Z,35.73
2023-02-04T19:19:57.699Z,41.88
2023-02-04T19:24:54.702Z,39.37
2023-02-04T19:30:01.280Z,39.58
2023-02-04T19:34:55.005Z,40.35
2023-02-04T19:39:46.489Z,42.78
2023-02-04T19:44:49.570Z,51.53
2023-02-04T19:49:43.458Z,56.73
2023-02-04T19:54:43.680Z,59.67
2023-02-04T19:59:39.885Z,55.40
2023-02-04T20:04:40.104Z,54.83
2023-02-04T20:09:37.402Z,52.60
2023-02-04T20:14:32.569Z,53.87
2023-02-04T20:19:27.519Z,55.65
2023-02-04T20:24:20.574Z,56.47
2023-02-04T20:29:27.116Z,57.60
2023-02-04T20:34:28.322Z,51.92
2023-02-04T20:39:40.502Z,51.25
2023-02-04T20:44:47.175Z,47.83
2023-02-04T20:49:46.492Z,50.43
2023-02-04T20:54:36.750Z,55.55
2023-02-04T20:59:36.662Z,53.07
2023-02-04T21:04:33.588Z,54.58
2023-02-04T21:09:27.092Z,56.72
2023-02-04T21:14:18.177Z,55.33
2023-02-04T21:19:12.150Z,54.37
2023-02-04T21:24:04.568Z,55.58
2023-02-04T21:28:59.907Z,51.77
2023-02-04T21:33:53.982Z,53.50
2023-02-04T21:38:49.832Z,53.90
2023-02-04T21:43:58.293Z,53.05
2023-02-04T21:48:51.049Z,50.38
2023-02-04T21:53:43.950Z,54.28
2023-02-04T21:58:38.822Z,51.75
2023-02-04T22:03:30.162Z,51.45
2023-02-04T22:08:21.744Z,48.20
2023-02-04T22:13:15.740Z,46.20
2023-02-04T22:18:13.624Z,47.35
2023-02-04T22:23:06.242Z,43.30
2023-02-04T22:27:57.626Z,40.50
2023-02-04T22:32:51.751Z,39.30
2023-02-04T22:37:46.098Z,36.55
2023-02-04T22:42:37.375Z,34.77
2023-02-04T22:47:28.877Z,35.28
2023-02-04T22:52:25.146Z,35.80
2023-02-04T22:57:21.368Z,35.53
2023-02-04T23:02:15.322Z,33.60
2023-02-04T23:07:08.855Z,36.37
2023-02-04T23:12:13.072Z,37.15
2023-02-04T23:17:06.850Z,39.13
2023-02-04T23:21:58.367Z,37.43
2023-02-04T23:26:49.705Z,39.53
2023-02-04T23:31:40.596Z,42.50
2023-02-04T23:36:39.756Z,43.30
2023-02-04T23:41:30.845Z,44.30
2023-02-04T23:46:24.802Z,44.75
2023-02-04T23:51:16.416Z,45.60
2023-02-04T23:56:10.929Z,44.22
